createdAt,value
2023-03-22T00:00:34.377Z,10.87
2023-03-22T00:01:34.349Z,10.87
2023-03-22T00:02:34.347Z,10.84
2023-03-22T00:03:34.351Z,10.84
2023-03-22T00:04:34.276Z,10.87
2023-03-22T00:05:34.242Z,10.87
2023-03-22T00:06:34.214Z,10.88
2023-03-22T00:07:34.184Z,10.81
2023-03-22T00:08:34.157Z,10.76
2023-03-22T00:09:34.132Z,10.80
2023-03-22T00:10:34.100Z,10.70
2023-03-22T00:11:34.079Z,10.58
2023-03-22T00:12:34.046Z,10.66
2023-03-22T00:13:35.561Z,10.58
2023-03-22T00:14:33.993Z,10.54
2023-03-22T00:15:33.962Z,10.54
2023-03-22T00:16:33.972Z,10.39
2023-03-22T00:17:33.910Z,10.36
2023-03-22T00:18:33.886Z,10.36
2023-03-22T00:19:33.988Z,10.28
2023-03-22T00:20:33.831Z,10.36
2023-03-22T00:21:33.801Z,10.32
2023-03-22T00:22:33.771Z,10.36
2023-03-22T00:23:33.753Z,10.29
2023-03-22T00:24:33.718Z,10.28
2023-03-22T00:25:33.688Z,10.20
2023-03-22T00:26:33.679Z,10.17
2023-03-22T00:27:33.633Z,10.31
2023-03-22T00:28:33.609Z,10.17
2023-03-22T00:29:33.587Z,10.22
2023-03-22T00:30:33.554Z,10.29
2023-03-22T00:31:33.546Z,10.25
2023-03-22T00:32:33.500Z,10.24
2023-03-22T00:33:33.472Z,10.17
2023-03-22T00:34:33.449Z,10.26
2023-03-22T00:35:33.479Z,10.22
2023-03-22T00:36:33.391Z,10.22
2023-03-22T00:37:33.362Z,10.13
2023-03-22T00:38:41.951Z,10.24
2023-03-22T00:39:33.307Z,10.20
2023-03-22T00:40:33.281Z,10.20
2023-03-22T00:41:33.252Z,10.20
2023-03-22T00:42:33.226Z,10.29
2023-03-22T00:43:33.198Z,10.26
2023-03-22T00:44:33.175Z,10.35
2023-03-22T00:45:33.145Z,10.38
2023-03-22T00:46:33.179Z,10.52
2023-03-22T00:47:33.089Z,10.62
2023-03-22T00:48:33.082Z,10.73
2023-03-22T00:49:33.036Z,10.62
2023-03-22T00:50:33.013Z,10.70
2023-03-22T00:51:33.005Z,10.68
2023-03-22T00:52:32.958Z,10.63
2023-03-22T00:53:33.027Z,10.62
2023-03-22T00:54:32.897Z,10.58
2023-03-22T00:55:32.872Z,10.54
2023-03-22T00:56:32.847Z,10.47
2023-03-22T00:57:32.817Z,10.44
2023-03-22T00:58:32.791Z,10.54
2023-03-22T00:59:32.758Z,10.44
2023-03-22T01:00:32.732Z,10.43
2023-03-22T01:01:32.939Z,10.46
2023-03-22T01:02:32.677Z,10.57
2023-03-22T01:03:32.694Z,10.54
2023-03-22T01:04:32.622Z,10.51
2023-03-22T01:05:32.592Z,10.42
2023-03-22T01:06:32.569Z,10.44
2023-03-22T01:07:32.564Z,10.32
2023-03-22T01:08:32.513Z,10.29
2023-03-22T01:09:32.481Z,10.39
2023-03-22T01:10:32.466Z,10.51
2023-03-22T01:11:32.426Z,10.49
2023-03-22T01:12:32.399Z,10.44
2023-03-22T01:13:32.369Z,10.49
2023-03-22T01:14:32.348Z,10.51
2023-03-22T01:15:32.314Z,10.66
2023-03-22T01:16:32.311Z,10.60
2023-03-22T01:17:32.256Z,10.63
2023-03-22T01:18:32.233Z,10.62
2023-03-22T01:19:32.202Z,10.65
2023-03-22T01:20:32.181Z,10.62
2023-03-22T01:21:32.151Z,10.65
2023-03-22T01:22:32.119Z,10.62
2023-03-22T01:23:32.109Z,10.58
2023-03-22T01:24:32.064Z,10.49
2023-03-22T01:25:32.033Z,10.39
2023-03-22T01:26:32.011Z,10.36
2023-03-22T01:27:31.979Z,10.26
2023-03-22T01:28:31.958Z,10.20
2023-03-22T01:29:31.923Z,10.06
2023-03-22T01:30:31.954Z,9.96
2023-03-22T01:31:31.871Z,9.93
2023-03-22T01:32:31.845Z,9.78
2023-03-22T01:33:31.817Z,9.78
2023-03-22T01:34:31.797Z,9.74
2023-03-22T01:35:31.788Z,9.78
2023-03-22T01:36:31.728Z,9.70
2023-03-22T01:37:31.699Z,9.67
2023-03-22T01:38:31.680Z,9.59
2023-03-22T01:39:31.671Z,9.63
2023-03-22T01:40:31.619Z,9.70
2023-03-22T01:41:31.590Z,9.75
2023-03-22T01:42:31.563Z,9.67
2023-03-22T01:43:31.546Z,9.60
2023-03-22T01:44:31.518Z,9.58
2023-03-22T01:45:31.481Z,9.52
2023-03-22T01:46:31.510Z,9.38
2023-03-22T01:47:31.432Z,9.27
2023-03-22T01:48:31.415Z,9.31
2023-03-22T01:49:31.378Z,9.13
2023-03-22T01:50:31.343Z,9.15
2023-03-22T01:51:31.314Z,9.06
2023-03-22T01:52:31.289Z,9.08
2023-03-22T01:53:31.257Z,8.91
2023-03-22T01:54:31.232Z,8.91
2023-03-22T01:55:31.225Z,8.80
2023-03-22T01:56:31.175Z,8.86
2023-03-22T01:57:31.147Z,8.82
2023-03-22T01:58:31.122Z,8.70
2023-03-22T01:59:31.152Z,8.64
2023-03-22T02:00:31.063Z,8.63
2023-03-22T02:01:31.136Z,8.49
2023-03-22T02:02:31.123Z,8.55
2023-03-22T02:03:30.977Z,8.54
2023-03-22T02:04:30.951Z,8.49
2023-03-22T02:05:30.920Z,8.45
2023-03-22T02:06:30.895Z,8.39
2023-03-22T02:07:30.869Z,8.37
2023-03-22T02:08:30.840Z,8.27
2023-03-22T02:09:30.812Z,8.32
2023-03-22T02:10:30.784Z,8.13
2023-03-22T02:11:30.770Z,8.18
2023-03-22T02:12:30.736Z,8.18
2023-03-22T02:13:30.705Z,8.13
2023-03-22T02:14:30.695Z,8.17
2023-03-22T02:15:30.679Z,8.18
2023-03-22T02:16:30.612Z,8.07
2023-03-22T02:17:30.584Z,8.09
2023-03-22T02:18:30.555Z,7.96
2023-03-22T02:19:30.571Z,7.96
2023-03-22T02:20:30.513Z,7.99
2023-03-22T02:21:30.469Z,7.88
2023-03-22T02:22:30.442Z,7.79
2023-03-22T02:23:30.413Z,7.77
2023-03-22T02:24:30.385Z,7.77
2023-03-22T02:25:30.357Z,7.84
2023-03-22T02:26:30.327Z,7.89
2023-03-22T02:27:30.316Z,7.92
2023-03-22T02:28:30.272Z,7.95
2023-03-22T02:29:30.239Z,7.94
2023-03-22T02:30:30.215Z,7.88
2023-03-22T02:31:30.233Z,7.82
2023-03-22T02:32:30.157Z,7.92
2023-03-22T02:33:30.129Z,7.92
2023-03-22T02:34:30.099Z,7.99
2023-03-22T02:35:30.075Z,7.84
2023-03-22T02:36:30.042Z,7.88
2023-03-22T02:37:30.012Z,7.74
2023-03-22T02:38:29.983Z,7.82
2023-03-22T02:39:29.955Z,7.86
2023-03-22T02:40:29.927Z,7.76
2023-03-22T02:41:29.913Z,7.81
2023-03-22T02:42:29.878Z,7.81
2023-03-22T02:43:29.866Z,7.81
2023-03-22T02:44:29.814Z,7.82
2023-03-22T02:45:29.785Z,7.73
2023-03-22T02:46:29.795Z,7.82
2023-03-22T02:47:29.727Z,7.71
2023-03-22T02:48:29.695Z,7.73
2023-03-22T02:49:29.672Z,7.70
2023-03-22T02:50:29.644Z,7.71
2023-03-22T02:51:29.613Z,7.73
2023-03-22T02:52:29.582Z,7.58
2023-03-22T02:53:29.563Z,7.63
2023-03-22T02:54:29.527Z,7.74
2023-03-22T02:55:29.496Z,7.79
2023-03-22T02:56:29.467Z,7.84
2023-03-22T02:57:29.438Z,7.74
2023-03-22T02:58:29.408Z,7.73
2023-03-22T02:59:29.400Z,7.73
2023-03-22T03:00:29.375Z,7.76
2023-03-22T03:01:29.329Z,7.71
2023-03-22T03:02:29.296Z,7.62
2023-03-22T03:03:29.319Z,7.63
2023-03-22T03:04:29.236Z,7.60
2023-03-22T03:05:29.211Z,7.37
2023-03-22T03:06:29.183Z,7.45
2023-03-22T03:07:29.151Z,7.50
2023-03-22T03:08:29.120Z,7.55
2023-03-22T03:09:29.090Z,7.55
2023-03-22T03:10:29.077Z,7.66
2023-03-22T03:11:29.036Z,7.57
2023-03-22T03:12:29.004Z,7.50
2023-03-22T03:13:28.977Z,7.47
2023-03-22T03:14:28.945Z,7.45
2023-03-22T03:15:28.945Z,7.47
2023-03-22T03:16:28.950Z,7.52
2023-03-22T03:17:28.860Z,7.39
2023-03-22T03:18:28.830Z,7.37
2023-03-22T03:19:28.814Z,7.32
2023-03-22T03:20:28.773Z,7.27
2023-03-22T03:21:28.742Z,7.29
2023-03-22T03:22:28.717Z,7.14
2023-03-22T03:23:28.693Z,7.19
2023-03-22T03:24:28.662Z,7.11
2023-03-22T03:25:28.631Z,7.16
2023-03-22T03:26:28.598Z,7.11
2023-03-22T03:27:28.571Z,7.14
2023-03-22T03:28:28.554Z,7.15
2023-03-22T03:29:28.516Z,7.18
2023-03-22T03:30:28.481Z,7.19
2023-03-22T03:31:28.540Z,7.19
2023-03-22T03:32:28.469Z,7.18
2023-03-22T03:33:28.396Z,7.33
2023-03-22T03:34:28.366Z,7.44
2023-03-22T03:35:28.361Z,7.36
2023-03-22T03:36:28.309Z,7.21
2023-03-22T03:37:28.282Z,7.21
2023-03-22T03:38:28.249Z,7.23
2023-03-22T03:39:28.222Z,7.07
2023-03-22T03:40:28.191Z,7.08
2023-03-22T03:41:28.170Z,6.93
2023-03-22T03:42:28.170Z,6.87
2023-03-22T03:43:28.161Z,6.94
2023-03-22T03:44:28.078Z,6.93
2023-03-22T03:45:28.096Z,6.93
2023-03-22T03:46:28.015Z,6.79
2023-03-22T03:47:28.005Z,6.87
2023-03-22T03:48:27.981Z,6.93
2023-03-22T03:49:27.929Z,6.93
2023-03-22T03:50:27.916Z,7.08
2023-03-22T03:51:27.879Z,7.01
2023-03-22T03:52:27.840Z,7.18
2023-03-22T03:53:27.813Z,7.16
2023-03-22T03:54:27.793Z,7.08
2023-03-22T03:55:27.762Z,7.01
2023-03-22T03:56:27.722Z,7.11
2023-03-22T03:57:27.693Z,7.07
2023-03-22T03:58:27.666Z,7.05
2023-03-22T03:59:27.636Z,7.09
2023-03-22T04:00:27.614Z,6.93
2023-03-22T04:01:27.578Z,6.91
2023-03-22T04:02:27.604Z,6.96
2023-03-22T04:03:27.543Z,7.05
2023-03-22T04:04:27.678Z,6.99
2023-03-22T04:05:27.461Z,7.07
2023-03-22T04:06:27.431Z,7.05
2023-03-22T04:07:27.424Z,6.90
2023-03-22T04:08:27.375Z,6.94
2023-03-22T04:09:27.399Z,6.97
2023-03-22T04:10:27.316Z,6.90
2023-03-22T04:11:27.294Z,6.94
2023-03-22T04:12:27.256Z,6.96
2023-03-22T04:13:27.230Z,6.96
2023-03-22T04:14:27.199Z,7.04
2023-03-22T04:15:27.170Z,6.99
2023-03-22T04:16:27.160Z,7.01
2023-03-22T04:17:27.111Z,7.08
2023-03-22T04:18:27.086Z,7.07
2023-03-22T04:19:27.076Z,7.01
2023-03-22T04:20:27.032Z,6.94
2023-03-22T04:21:26.990Z,6.97
2023-03-22T04:22:26.972Z,6.76
2023-03-22T04:23:26.938Z,6.90
2023-03-22T04:24:26.908Z,6.73
2023-03-22T04:25:26.896Z,6.79
2023-03-22T04:26:27.039Z,6.76
2023-03-22T04:27:26.814Z,6.63
2023-03-22T04:28:26.786Z,6.69
2023-03-22T04:29:26.755Z,6.76
2023-03-22T04:30:26.726Z,6.73
2023-03-22T04:31:26.763Z,6.69
2023-03-22T04:32:26.677Z,6.75
2023-03-22T04:33:26.662Z,6.73
2023-03-22T04:34:26.613Z,6.68
2023-03-22T04:35:26.619Z,6.73
2023-03-22T04:36:26.549Z,6.68
2023-03-22T04:37:26.519Z,6.65
2023-03-22T04:38:26.491Z,6.64
2023-03-22T04:39:26.497Z,6.73
2023-03-22T04:40:26.438Z,6.76
2023-03-22T04:41:26.409Z,6.86
2023-03-22T04:42:26.389Z,6.81
2023-03-22T04:43:26.344Z,6.86
2023-03-22T04:44:26.317Z,6.86
2023-03-22T04:45:26.285Z,6.96
2023-03-22T04:46:26.281Z,6.94
2023-03-22T04:47:26.227Z,6.93
2023-03-22T04:48:26.201Z,6.89
2023-03-22T04:49:26.168Z,6.83
2023-03-22T04:50:26.136Z,6.79
2023-03-22T04:51:26.135Z,6.82
2023-03-22T04:52:26.078Z,6.87
2023-03-22T04:53:26.049Z,6.86
2023-03-22T04:54:26.047Z,6.79
2023-03-22T04:55:26.001Z,6.78
2023-03-22T04:56:25.975Z,6.83
2023-03-22T04:57:25.955Z,6.83
2023-03-22T04:58:25.903Z,6.83
2023-03-22T04:59:25.875Z,6.76
2023-03-22T05:00:25.849Z,6.71
2023-03-22T05:01:25.853Z,6.68
2023-03-22T05:02:25.807Z,6.78
2023-03-22T05:03:25.759Z,6.86
2023-03-22T05:04:25.727Z,6.78
2023-03-22T05:05:25.702Z,6.79
2023-03-22T05:06:25.667Z,6.81
2023-03-22T05:07:25.683Z,6.82
2023-03-22T05:08:25.608Z,6.79
2023-03-22T05:09:25.582Z,6.76
2023-03-22T05:10:25.549Z,6.83
2023-03-22T05:11:25.521Z,6.83
2023-03-22T05:12:25.492Z,6.79
2023-03-22T05:13:25.463Z,6.76
2023-03-22T05:14:25.483Z,6.79
2023-03-22T05:15:25.404Z,6.86
2023-03-22T05:16:25.505Z,6.89
2023-03-22T05:17:25.344Z,6.81
2023-03-22T05:18:25.313Z,6.82
2023-03-22T05:19:25.292Z,6.82
2023-03-22T05:20:25.262Z,6.78
2023-03-22T05:21:25.232Z,6.75
2023-03-22T05:22:25.203Z,6.75
2023-03-22T05:23:25.193Z,6.61
2023-03-22T05:24:25.153Z,6.61
2023-03-22T05:25:25.119Z,6.63
2023-03-22T05:26:25.081Z,6.58
2023-03-22T05:27:25.057Z,6.65
2023-03-22T05:28:25.022Z,6.68
2023-03-22T05:29:24.994Z,6.75
2023-03-22T05:30:24.962Z,6.65
2023-03-22T05:31:24.983Z,6.72
2023-03-22T05:32:24.904Z,6.71
2023-03-22T05:33:24.886Z,6.69
2023-03-22T05:34:24.849Z,6.78
2023-03-22T05:35:24.876Z,6.81
2023-03-22T05:36:24.789Z,6.78
2023-03-22T05:37:24.760Z,6.81
2023-03-22T05:38:24.732Z,6.78
2023-03-22T05:39:24.720Z,6.76
2023-03-22T05:40:24.676Z,6.81
2023-03-22T05:41:24.646Z,6.72
2023-03-22T05:42:24.618Z,6.75
2023-03-22T05:43:24.584Z,6.79
2023-03-22T05:44:24.561Z,6.81
2023-03-22T05:45:24.537Z,6.86
2023-03-22T05:46:24.567Z,6.78
2023-03-22T05:47:24.474Z,6.68
2023-03-22T05:48:24.475Z,6.79
2023-03-22T05:49:24.412Z,6.81
2023-03-22T05:50:24.380Z,6.78
2023-03-22T05:51:24.356Z,6.81
2023-03-22T05:52:24.340Z,6.90
2023-03-22T05:53:24.294Z,6.83
2023-03-22T05:54:24.264Z,6.83
2023-03-22T05:55:24.260Z,6.79
2023-03-22T05:56:24.576Z,6.79
2023-03-22T05:57:24.175Z,6.81
2023-03-22T05:58:24.152Z,6.82
2023-03-22T05:59:24.121Z,6.83
2023-03-22T06:00:24.090Z,6.81
2023-03-22T06:01:24.062Z,6.78
2023-03-22T06:02:24.034Z,6.73
2023-03-22T06:03:24.054Z,6.81
2023-03-22T06:04:24.018Z,6.73
2023-03-22T06:05:23.949Z,6.82
2023-03-22T06:06:23.926Z,6.82
2023-03-22T06:07:23.887Z,6.78
2023-03-22T06:08:26.464Z,6.83
2023-03-22T06:09:23.828Z,6.82
2023-03-22T06:10:23.799Z,6.75
2023-03-22T06:11:23.814Z,6.83
2023-03-22T06:12:23.740Z,6.82
2023-03-22T06:13:23.758Z,6.81
2023-03-22T06:14:23.681Z,6.81
2023-03-22T06:15:23.653Z,6.78
2023-03-22T06:16:23.693Z,6.87
2023-03-22T06:17:23.597Z,6.91
2023-03-22T06:18:23.570Z,6.94
2023-03-22T06:19:23.539Z,6.93
2023-03-22T06:20:23.505Z,6.89
2023-03-22T06:21:23.478Z,7.05
2023-03-22T06:22:23.448Z,6.89
2023-03-22T06:23:23.420Z,6.97
2023-03-22T06:24:23.397Z,7.01
2023-03-22T06:25:23.362Z,7.01
2023-03-22T06:26:23.332Z,7.07
2023-03-22T06:27:23.331Z,7.09
2023-03-22T06:28:23.272Z,7.08
2023-03-22T06:29:23.242Z,7.08
2023-03-22T06:30:23.236Z,7.15
2023-03-22T06:31:23.180Z,7.23
2023-03-22T06:32:23.151Z,7.12
2023-03-22T06:33:23.122Z,7.16
2023-03-22T06:34:23.092Z,7.29
2023-03-22T06:35:23.110Z,7.27
2023-03-22T06:36:23.044Z,7.37
2023-03-22T06:37:23.027Z,7.32
2023-03-22T06:38:22.984Z,7.45
2023-03-22T06:39:22.955Z,7.34
2023-03-22T06:40:22.921Z,7.51
2023-03-22T06:41:22.885Z,7.63
2023-03-22T06:42:22.855Z,7.60
2023-03-22T06:43:22.854Z,7.73
2023-03-22T06:44:22.833Z,7.73
2023-03-22T06:45:22.775Z,7.73
2023-03-22T06:46:22.816Z,7.77
2023-03-22T06:47:22.711Z,7.86
2023-03-22T06:48:22.795Z,7.95
2023-03-22T06:49:22.727Z,7.94
2023-03-22T06:50:22.681Z,7.99
2023-03-22T06:51:22.595Z,8.04
2023-03-22T06:52:22.568Z,8.13
2023-03-22T06:53:22.536Z,8.09
2023-03-22T06:54:22.508Z,8.09
2023-03-22T06:55:22.484Z,8.10
2023-03-22T06:56:22.451Z,8.25
2023-03-22T06:57:22.423Z,8.31
2023-03-22T06:58:22.393Z,8.36
2023-03-22T06:59:22.392Z,8.42
2023-03-22T07:00:22.334Z,8.42
2023-03-22T07:01:22.489Z,8.36
2023-03-22T07:02:22.277Z,8.46
2023-03-22T07:03:22.251Z,8.55
2023-03-22T07:04:22.267Z,8.57
2023-03-22T07:05:22.190Z,8.60
2023-03-22T07:06:22.197Z,8.55
2023-03-22T07:07:22.133Z,8.68
2023-03-22T07:08:22.107Z,8.63
2023-03-22T07:09:22.076Z,8.75
2023-03-22T07:10:22.048Z,8.63
2023-03-22T07:11:22.020Z,8.75
2023-03-22T07:12:22.001Z,8.85
2023-03-22T07:13:21.971Z,8.79
2023-03-22T07:14:21.986Z,8.97
2023-03-22T07:15:21.977Z,8.88
2023-03-22T07:16:21.971Z,8.88
2023-03-22T07:17:21.850Z,8.88
2023-03-22T07:18:21.822Z,9.01
2023-03-22T07:19:21.794Z,9.01
2023-03-22T07:20:21.771Z,9.04
2023-03-22T07:21:21.735Z,9.12
2023-03-22T07:22:21.707Z,9.03
2023-03-22T07:23:21.678Z,9.24
2023-03-22T07:24:21.650Z,9.22
2023-03-22T07:25:21.628Z,9.15
2023-03-22T07:26:21.598Z,9.16
2023-03-22T07:27:21.568Z,9.23
2023-03-22T07:28:21.539Z,9.16
2023-03-22T07:29:21.524Z,9.31
2023-03-22T07:30:21.482Z,9.27
2023-03-22T07:31:21.481Z,9.30
2023-03-22T07:32:21.474Z,9.31
2023-03-22T07:33:21.395Z,9.40
2023-03-22T07:34:21.370Z,9.40
2023-03-22T07:35:21.359Z,9.42
2023-03-22T07:36:21.317Z,9.50
2023-03-22T07:37:21.282Z,9.48
2023-03-22T07:38:21.256Z,9.52
2023-03-22T07:39:21.228Z,9.67
2023-03-22T07:40:21.201Z,9.55
2023-03-22T07:41:21.172Z,9.70
2023-03-22T07:42:21.153Z,9.70
2023-03-22T07:43:21.118Z,9.78
2023-03-22T07:44:21.100Z,9.78
2023-03-22T07:45:21.187Z,9.78
2023-03-22T07:46:21.088Z,9.81
2023-03-22T07:47:37.755Z,9.93
2023-03-22T07:48:22.642Z,9.86
2023-03-22T07:49:20.995Z,9.93
2023-03-22T07:50:20.929Z,9.96
2023-03-22T07:51:20.893Z,9.98
2023-03-22T07:52:20.870Z,10.06
2023-03-22T07:53:20.840Z,10.17
2023-03-22T07:54:32.852Z,10.17
2023-03-22T07:55:20.786Z,10.24
2023-03-22T07:56:20.756Z,10.14
2023-03-22T07:57:20.729Z,10.13
2023-03-22T07:58:20.701Z,10.25
2023-03-22T07:59:20.678Z,10.31
2023-03-22T08:00:20.651Z,10.29
2023-03-22T08:01:20.619Z,10.32
2023-03-22T08:02:20.691Z,10.46
2023-03-22T08:03:20.625Z,10.46
2023-03-22T08:04:20.554Z,10.57
2023-03-22T08:05:20.511Z,10.55
2023-03-22T08:06:20.480Z,10.65
2023-03-22T08:07:20.452Z,10.65
2023-03-22T08:08:20.427Z,10.69
2023-03-22T08:09:20.394Z,10.75
2023-03-22T08:10:20.370Z,10.76
2023-03-22T08:11:20.344Z,10.80
2023-03-22T08:12:20.332Z,10.83
2023-03-22T08:13:20.284Z,10.86
2023-03-22T08:14:27.441Z,10.88
2023-03-22T08:15:22.486Z,10.98
2023-03-22T08:16:20.244Z,11.05
2023-03-22T08:17:20.172Z,11.16
2023-03-22T08:18:20.146Z,11.20
2023-03-22T08:19:20.181Z,11.21
2023-03-22T08:20:20.091Z,11.24
2023-03-22T08:21:20.061Z,11.24
2023-03-22T08:22:20.034Z,11.24
2023-03-22T08:23:26.342Z,11.26
2023-03-22T08:24:19.980Z,11.31
2023-03-22T08:25:19.962Z,11.35
2023-03-22T08:26:19.939Z,11.33
2023-03-22T08:27:19.900Z,11.41
2023-03-22T08:28:19.888Z,11.42
2023-03-22T08:29:19.840Z,11.42
2023-03-22T08:30:19.824Z,11.48
2023-03-22T08:31:19.870Z,11.56
2023-03-22T08:32:19.761Z,11.53
2023-03-22T08:33:19.732Z,11.64
2023-03-22T08:34:19.717Z,11.70
2023-03-22T08:35:19.760Z,11.70
2023-03-22T08:36:19.653Z,11.66
2023-03-22T08:37:19.623Z,11.67
2023-03-22T08:38:19.605Z,11.81
2023-03-22T08:39:19.589Z,11.84
2023-03-22T08:40:19.614Z,11.94
2023-03-22T08:41:19.525Z,11.84
2023-03-22T08:42:19.495Z,11.94
2023-03-22T08:43:19.461Z,11.87
2023-03-22T08:44:19.445Z,11.93
2023-03-22T08:45:19.408Z,11.97
2023-03-22T08:46:19.428Z,12.08
2023-03-22T08:47:19.372Z,12.08
2023-03-22T08:48:19.397Z,12.07
2023-03-22T08:49:19.298Z,12.05
2023-03-22T08:50:19.272Z,12.13
2023-03-22T08:51:19.391Z,12.18
2023-03-22T08:52:19.217Z,12.33
2023-03-22T08:53:19.190Z,12.33
2023-03-22T08:54:19.176Z,12.29
2023-03-22T08:55:19.136Z,12.46
2023-03-22T08:56:19.110Z,12.46
2023-03-22T08:57:19.085Z,12.51
2023-03-22T08:58:19.055Z,12.51
2023-03-22T08:59:19.034Z,12.48
2023-03-22T09:00:19.003Z,12.66
2023-03-22T09:01:19.081Z,12.70
2023-03-22T09:02:18.966Z,12.73
2023-03-22T09:03:18.931Z,12.73
2023-03-22T09:04:18.931Z,12.77
2023-03-22T09:05:18.883Z,12.87
2023-03-22T09:06:18.837Z,12.74
2023-03-22T09:07:18.848Z,12.71
2023-03-22T09:08:19.828Z,12.69
2023-03-22T09:09:18.764Z,12.54
2023-03-22T09:10:18.735Z,12.55
2023-03-22T09:11:18.705Z,12.63
2023-03-22T09:12:18.684Z,12.56
2023-03-22T09:13:18.664Z,12.67
2023-03-22T09:14:18.629Z,12.85
2023-03-22T09:15:18.611Z,12.91
2023-03-22T09:16:18.688Z,13.06
2023-03-22T09:17:20.625Z,12.99
2023-03-22T09:18:18.528Z,13.06
2023-03-22T09:19:18.506Z,12.91
2023-03-22T09:20:18.468Z,13.04
2023-03-22T09:21:18.443Z,13.03
2023-03-22T09:22:18.415Z,13.09
2023-03-22T09:23:18.411Z,13.10
2023-03-22T09:24:18.393Z,13.12
2023-03-22T09:25:18.336Z,12.95
2023-03-22T09:26:18.306Z,13.10
2023-03-22T09:27:18.280Z,13.14
2023-03-22T09:28:18.288Z,13.16
2023-03-22T09:29:18.227Z,13.22
2023-03-22T09:30:18.218Z,13.28
2023-03-22T09:31:20.448Z,13.27
2023-03-22T09:32:18.148Z,13.39
2023-03-22T09:33:18.119Z,13.36
2023-03-22T09:34:18.094Z,13.53
2023-03-22T09:35:18.068Z,13.50
2023-03-22T09:36:18.042Z,13.53
2023-03-22T09:37:18.015Z,13.62
2023-03-22T09:38:17.989Z,13.80
2023-03-22T09:39:17.984Z,13.79
2023-03-22T09:40:17.939Z,13.75
2023-03-22T09:41:17.907Z,13.76
2023-03-22T09:42:17.884Z,13.75
2023-03-22T09:43:17.857Z,13.72
2023-03-22T09:44:17.831Z,13.72
2023-03-22T09:45:17.802Z,13.83
2023-03-22T09:46:17.792Z,13.68
2023-03-22T09:47:17.752Z,13.86
2023-03-22T09:48:17.765Z,14.08
2023-03-22T09:49:17.698Z,14.23
2023-03-22T09:50:17.672Z,14.29
2023-03-22T09:51:17.647Z,14.23
2023-03-22T09:52:17.648Z,14.06
2023-03-22T09:53:17.604Z,14.26
2023-03-22T09:54:17.570Z,14.24
2023-03-22T09:55:17.561Z,14.21
2023-03-22T09:56:17.523Z,14.09
2023-03-22T09:57:17.490Z,14.09
2023-03-22T09:58:17.492Z,14.05
2023-03-22T09:59:17.437Z,14.20
2023-03-22T10:00:17.437Z,14.21
2023-03-22T10:01:20.336Z,14.24
2023-03-22T10:02:17.496Z,14.21
2023-03-22T10:03:17.333Z,14.16
2023-03-22T10:04:17.329Z,14.13
2023-03-22T10:05:17.281Z,14.08
2023-03-22T10:06:17.258Z,14.05
2023-03-22T10:07:17.238Z,14.16
2023-03-22T10:08:17.207Z,14.35
2023-03-22T10:09:17.181Z,14.24
2023-03-22T10:10:17.153Z,14.35
2023-03-22T10:11:17.155Z,14.44
2023-03-22T10:12:17.101Z,14.34
2023-03-22T10:13:17.074Z,14.52
2023-03-22T10:14:17.049Z,14.74
2023-03-22T10:15:17.023Z,14.78
2023-03-22T10:16:17.074Z,14.71
2023-03-22T10:17:16.969Z,14.61
2023-03-22T10:18:16.945Z,14.67
2023-03-22T10:19:16.920Z,14.63
2023-03-22T10:20:16.898Z,14.71
2023-03-22T10:21:16.866Z,14.82
2023-03-22T10:22:16.842Z,14.44
2023-03-22T10:23:16.820Z,14.49
2023-03-22T10:24:16.794Z,14.66
2023-03-22T10:25:16.763Z,14.74
2023-03-22T10:26:16.738Z,14.74
2023-03-22T10:27:16.751Z,14.87
2023-03-22T10:28:16.687Z,14.83
2023-03-22T10:29:16.659Z,14.74
2023-03-22T10:30:16.638Z,14.85
2023-03-22T10:31:16.626Z,15.07
2023-03-22T10:32:16.587Z,15.30
2023-03-22T10:33:16.561Z,15.46
2023-03-22T10:34:16.544Z,15.55
2023-03-22T10:35:16.506Z,15.40
2023-03-22T10:36:16.509Z,15.49
2023-03-22T10:37:16.474Z,15.51
2023-03-22T10:38:16.434Z,15.46
2023-03-22T10:39:16.406Z,15.34
2023-03-22T10:40:16.404Z,15.13
2023-03-22T10:41:16.353Z,15.13
2023-03-22T10:42:16.330Z,15.15
2023-03-22T10:43:16.322Z,15.33
2023-03-22T10:44:16.277Z,15.34
2023-03-22T10:45:16.250Z,15.38
2023-03-22T10:46:16.271Z,15.41
2023-03-22T10:47:16.202Z,15.51
2023-03-22T10:48:18.764Z,15.55
2023-03-22T10:49:16.150Z,15.71
2023-03-22T10:50:16.128Z,15.67
2023-03-22T10:51:16.101Z,15.58
2023-03-22T10:52:16.077Z,15.70
2023-03-22T10:53:16.060Z,15.55
2023-03-22T10:54:16.027Z,15.68
2023-03-22T10:55:16.000Z,15.53
2023-03-22T10:56:15.993Z,15.34
2023-03-22T10:57:15.947Z,15.44
2023-03-22T10:58:15.934Z,15.55
2023-03-22T10:59:15.918Z,15.66
2023-03-22T11:00:15.876Z,15.80
2023-03-22T11:01:16.039Z,15.84
2023-03-22T11:02:15.975Z,15.81
2023-03-22T11:03:15.800Z,15.86
2023-03-22T11:04:15.785Z,15.95
2023-03-22T11:05:15.755Z,15.68
2023-03-22T11:06:15.724Z,15.48
2023-03-22T11:07:15.701Z,15.53
2023-03-22T11:08:15.678Z,15.56
2023-03-22T11:09:15.651Z,15.66
2023-03-22T11:10:15.672Z,15.60
2023-03-22T11:11:15.603Z,15.89
2023-03-22T11:12:15.575Z,15.93
2023-03-22T11:13:15.546Z,15.59
2023-03-22T11:14:15.523Z,15.81
2023-03-22T11:15:15.526Z,15.81
2023-03-22T11:16:15.607Z,16.03
2023-03-22T11:17:15.451Z,16.04
2023-03-22T11:18:15.426Z,16.13
2023-03-22T11:19:15.396Z,16.17
2023-03-22T11:20:15.414Z,16.25
2023-03-22T11:21:15.342Z,16.11
2023-03-22T11:22:15.317Z,16.03
2023-03-22T11:23:15.294Z,16.06
2023-03-22T11:24:15.269Z,16.04
2023-03-22T11:25:15.245Z,16.06
2023-03-22T11:26:15.216Z,16.17
2023-03-22T11:27:15.200Z,16.10
2023-03-22T11:28:15.169Z,16.03
2023-03-22T11:29:15.149Z,16.17
2023-03-22T11:30:15.117Z,16.37
2023-03-22T11:31:15.309Z,16.18
2023-03-22T11:32:15.115Z,16.01
2023-03-22T11:33:15.158Z,16.10
2023-03-22T11:34:15.018Z,16.13
2023-03-22T11:35:14.999Z,16.37
2023-03-22T11:36:14.971Z,16.27
2023-03-22T11:37:17.220Z,16.22
2023-03-22T11:38:14.917Z,16.32
2023-03-22T11:39:14.895Z,16.54
2023-03-22T11:40:14.869Z,16.62
2023-03-22T11:41:14.845Z,16.50
2023-03-22T11:42:14.819Z,16.48
2023-03-22T11:43:14.800Z,16.41
2023-03-22T11:44:14.770Z,16.27
2023-03-22T11:45:14.751Z,16.32
2023-03-22T11:46:14.753Z,16.33
2023-03-22T11:47:14.799Z,16.54
2023-03-22T11:48:14.798Z,16.69
2023-03-22T11:49:14.891Z,16.80
2023-03-22T11:50:14.629Z,16.69
2023-03-22T11:51:14.599Z,16.65
2023-03-22T11:52:14.573Z,16.63
2023-03-22T11:53:14.547Z,16.54
2023-03-22T11:54:14.523Z,16.50
2023-03-22T11:55:14.497Z,16.65
2023-03-22T11:56:14.474Z,16.87
2023-03-22T11:57:14.447Z,16.99
2023-03-22T11:58:14.425Z,17.15
2023-03-22T11:59:14.399Z,17.35
2023-03-22T12:00:14.379Z,17.45
2023-03-22T12:01:14.349Z,17.43
2023-03-22T12:02:14.378Z,17.58
2023-03-22T12:03:14.466Z,17.63
2023-03-22T12:04:14.276Z,17.62
2023-03-22T12:05:14.299Z,17.68
2023-03-22T12:06:14.249Z,17.57
2023-03-22T12:07:14.205Z,17.60
2023-03-22T12:08:14.192Z,17.66
2023-03-22T12:09:14.155Z,17.66
2023-03-22T12:10:14.128Z,17.74
2023-03-22T12:11:14.107Z,17.87
2023-03-22T12:12:14.083Z,17.83
2023-03-22T12:13:14.069Z,17.73
2023-03-22T12:14:14.032Z,17.79
2023-03-22T12:15:14.009Z,17.79
2023-03-22T12:16:14.056Z,17.63
2023-03-22T12:17:13.964Z,17.65
2023-03-22T12:18:14.007Z,17.73
2023-03-22T12:19:13.940Z,17.76
2023-03-22T12:20:13.896Z,17.77
2023-03-22T12:21:13.871Z,17.65
2023-03-22T12:22:13.841Z,17.39
2023-03-22T12:23:13.822Z,17.45
2023-03-22T12:24:13.794Z,17.63
2023-03-22T12:25:13.770Z,17.71
2023-03-22T12:26:13.751Z,17.77
2023-03-22T12:27:13.723Z,17.73
2023-03-22T12:28:13.700Z,17.77
2023-03-22T12:29:13.674Z,17.74
2023-03-22T12:30:13.651Z,17.80
2023-03-22T12:31:13.711Z,17.92
2023-03-22T12:32:13.608Z,17.99
2023-03-22T12:33:13.680Z,17.94
2023-03-22T12:34:13.557Z,17.99
2023-03-22T12:35:17.614Z,17.96
2023-03-22T12:36:13.585Z,18.13
2023-03-22T12:37:13.485Z,18.01
2023-03-22T12:38:13.462Z,18.04
2023-03-22T12:39:13.436Z,18.02
2023-03-22T12:40:13.412Z,18.04
2023-03-22T12:41:13.459Z,18.05
2023-03-22T12:42:13.424Z,17.99
2023-03-22T12:43:13.372Z,18.01
2023-03-22T12:44:13.317Z,18.05
2023-03-22T12:45:13.303Z,17.79
2023-03-22T12:46:13.365Z,17.76
2023-03-22T12:47:13.278Z,17.74
2023-03-22T12:48:13.331Z,17.79
2023-03-22T12:49:13.200Z,17.91
2023-03-22T12:50:13.226Z,17.89
2023-03-22T12:51:13.172Z,18.04
2023-03-22T12:52:13.126Z,18.17
2023-03-22T12:53:13.103Z,18.19
2023-03-22T12:54:13.084Z,17.99
2023-03-22T12:55:13.058Z,17.77
2023-03-22T12:56:13.031Z,17.87
2023-03-22T12:57:13.016Z,18.09
2023-03-22T12:58:13.008Z,18.20
2023-03-22T12:59:12.961Z,17.96
2023-03-22T13:00:13.091Z,17.91
2023-03-22T13:01:12.990Z,17.94
2023-03-22T13:02:12.892Z,18.11
2023-03-22T13:03:13.054Z,18.29
2023-03-22T13:04:12.924Z,18.39
2023-03-22T13:05:12.815Z,18.53